createdAt,value
2022-11-02T00:01:27.223Z,100212.38
2022-11-02T00:03:54.493Z,100204.31
2022-11-02T00:06:21.856Z,100204.06
2022-11-02T00:08:48.833Z,100208.31
2022-11-02T00:11:18.212Z,100204.06
2022-11-02T00:13:47.370Z,100210.84
2022-11-02T00:16:19.285Z,100220.41
2022-11-02T00:18:49.059Z,100221.19
2022-11-02T00:21:18.786Z,100220.41
2022-11-02T00:23:47.740Z,100237.78
2022-11-02T00:26:16.905Z,100231.50
2022-11-02T00:28:44.310Z,100224.69
2022-11-02T00:31:11.494Z,100226.94
2022-11-02T00:33:38.471Z,100221.41
2022-11-02T00:36:05.876Z,100230.47
2022-11-02T00:38:33.041Z,100241.78
2022-11-02T00:41:00.227Z,100232.00
2022-11-02T00:43:27.212Z,100231.22
2022-11-02T00:45:54.401Z,100229.22
2022-11-02T00:48:22.697Z,100225.94
2022-11-02T00:50:50.025Z,100215.38
2022-11-02T00:53:18.847Z,100208.59
2022-11-02T00:55:54.012Z,100216.38
2022-11-02T00:58:21.733Z,100215.66
2022-11-02T01:00:50.530Z,100209.59
2022-11-02T01:03:17.916Z,100202.81
2022-11-02T01:05:45.086Z,100205.34
2022-11-02T01:08:12.059Z,100202.56
2022-11-02T01:10:42.723Z,100210.09
2022-11-02T01:13:12.626Z,100198.81
2022-11-02T01:15:40.304Z,100204.34
2022-11-02T01:18:07.569Z,100202.56
2022-11-02T01:20:35.220Z,100199.56
2022-11-02T01:23:04.853Z,100201.06
2022-11-02T01:25:32.041Z,100205.34
2022-11-02T01:27:59.059Z,100200.56
2022-11-02T01:30:26.227Z,100205.59
2022-11-02T01:32:53.200Z,100208.34
2022-11-02T01:35:22.815Z,100215.13
2022-11-02T01:37:49.754Z,100208.38
2022-11-02T01:40:19.237Z,100210.13
2022-11-02T01:42:48.678Z,100206.06
2022-11-02T01:45:15.836Z,100201.31
2022-11-02T01:47:46.592Z,100199.03
2022-11-02T01:50:21.037Z,100202.31
2022-11-02T01:52:48.152Z,100195.50
2022-11-02T01:55:26.765Z,100204.56
2022-11-02T01:57:57.916Z,100206.34
2022-11-02T02:00:25.346Z,100206.09
2022-11-02T02:02:56.308Z,100197.78
2022-11-02T02:05:24.915Z,100196.28
2022-11-02T02:07:52.792Z,100197.56
2022-11-02T02:10:20.758Z,100201.56
2022-11-02T02:12:49.013Z,100199.81
2022-11-02T02:15:25.369Z,100206.59
2022-11-02T02:18:01.596Z,100208.38
2022-11-02T02:20:42.196Z,100206.84
2022-11-02T02:23:28.134Z,100214.91
2022-11-02T02:26:23.489Z,100221.94
2022-11-02T02:28:53.644Z,100215.66
2022-11-02T02:31:40.340Z,100228.22
2022-11-02T02:34:21.101Z,100236.53
2022-11-02T02:37:34.381Z,100228.47
2022-11-02T02:40:09.040Z,100236.25
2022-11-02T02:42:46.468Z,100236.53
2022-11-02T02:45:19.950Z,100238.28
2022-11-02T02:48:01.082Z,100242.56
2022-11-02T02:50:37.306Z,100236.53
2022-11-02T02:53:07.349Z,100245.59
2022-11-02T02:55:41.852Z,100247.59
2022-11-02T02:58:15.690Z,100240.78
2022-11-02T03:00:44.538Z,100245.84
2022-11-02T03:03:24.708Z,100249.09
2022-11-02T03:06:00.908Z,100256.16
2022-11-02T03:08:28.688Z,100253.66
2022-11-02T03:11:14.171Z,100250.13
2022-11-02T03:14:17.051Z,100256.91
2022-11-02T03:17:03.072Z,100257.66
2022-11-02T03:19:44.451Z,100261.41
2022-11-02T03:22:35.125Z,100265.97
2022-11-02T03:25:19.315Z,100262.69
2022-11-02T03:28:13.899Z,100261.94
2022-11-02T03:30:50.788Z,100264.19
2022-11-02T03:33:30.986Z,100267.47
2022-11-02T03:36:10.819Z,100257.16
2022-11-02T03:39:00.779Z,100269.72
2022-11-02T03:41:33.135Z,100269.22
2022-11-02T03:44:07.011Z,100268.72
2022-11-02T03:46:38.196Z,100274.03
2022-11-02T03:49:10.794Z,100271.25
2022-11-02T03:51:43.725Z,100272.75
2022-11-02T03:54:26.254Z,100270.25
2022-11-02T03:56:59.937Z,100270.25
2022-11-02T03:59:31.529Z,100270.25
2022-11-02T04:02:00.713Z,100273.50
2022-11-02T04:04:29.104Z,100270.75
2022-11-02T04:06:57.078Z,100268.22
2022-11-02T04:09:26.846Z,100259.91
2022-11-02T04:12:12.756Z,100263.94
2022-11-02T04:14:40.128Z,100256.91
2022-11-02T04:17:37.477Z,100265.22
2022-11-02T04:20:11.512Z,100263.69
2022-11-02T04:22:58.047Z,100263.19
2022-11-02T04:25:25.843Z,100267.97
2022-11-02T04:28:14.822Z,100276.28
2022-11-02T04:30:48.743Z,100270.75
2022-11-02T04:33:34.631Z,100282.03
2022-11-02T04:36:07.741Z,100289.88
2022-11-02T04:38:42.047Z,100294.66
2022-11-02T04:41:44.401Z,100281.06
2022-11-02T04:44:26.283Z,100285.31
2022-11-02T04:47:01.137Z,100283.56
2022-11-02T04:49:32.077Z,100276.75
2022-11-02T04:51:59.749Z,100274.75
2022-11-02T04:54:28.938Z,100274.75
2022-11-02T04:57:00.323Z,100273.22
2022-11-02T04:59:29.155Z,100264.69
2022-11-02T05:01:56.541Z,100273.25
2022-11-02T05:04:23.752Z,100271.75
2022-11-02T05:06:50.741Z,100261.16
2022-11-02T05:09:19.389Z,100270.22
2022-11-02T05:11:48.286Z,100274.25
2022-11-02T05:14:16.524Z,100271.50
2022-11-02T05:16:43.478Z,100276.28
2022-11-02T05:19:12.418Z,100273.50
2022-11-02T05:21:40.655Z,100282.31
2022-11-02T05:24:08.387Z,100289.84
2022-11-02T05:26:37.742Z,100284.56
2022-11-02T05:29:05.856Z,100285.06
2022-11-02T05:31:34.072Z,100277.78
2022-11-02T05:34:01.298Z,100292.88
2022-11-02T05:36:28.561Z,100286.09
2022-11-02T05:38:56.390Z,100293.63
2022-11-02T05:41:24.171Z,100284.59
2022-11-02T05:43:54.521Z,100299.63
2022-11-02T05:46:23.281Z,100292.34
2022-11-02T05:48:50.570Z,100296.88
2022-11-02T05:51:17.832Z,100299.34
2022-11-02T05:53:45.160Z,100302.09
2022-11-02T05:56:14.738Z,100295.03
2022-11-02T05:58:41.941Z,100297.53
2022-11-02T06:01:11.499Z,100300.56
2022-11-02T06:03:38.736Z,100300.06
2022-11-02T06:06:08.073Z,100303.06
2022-11-02T06:08:36.970Z,100306.81
2022-11-02T06:11:14.284Z,100309.06
2022-11-02T06:13:42.325Z,100311.13
2022-11-02T06:16:12.014Z,100317.41
2022-11-02T06:18:39.493Z,100318.69
2022-11-02T06:21:09.611Z,100327.75
2022-11-02T06:23:37.506Z,100320.47
2022-11-02T06:26:05.039Z,100325.03
2022-11-02T06:28:32.521Z,100326.06
2022-11-02T06:30:59.553Z,100326.34
2022-11-02T06:33:29.993Z,100335.63
2022-11-02T06:36:02.809Z,100342.69
2022-11-02T06:38:30.411Z,100349.47
2022-11-02T06:40:59.681Z,100351.25
2022-11-02T06:43:26.934Z,100365.16
2022-11-02T06:45:55.954Z,100369.66
2022-11-02T06:48:23.811Z,100375.84
2022-11-02T06:50:51.095Z,100365.09
2022-11-02T06:53:18.534Z,100364.13
2022-11-02T06:55:51.172Z,100366.59
2022-11-02T06:58:18.425Z,100371.50
2022-11-02T07:00:45.400Z,100388.03
2022-11-02T07:03:12.732Z,100384.81
2022-11-02T07:05:39.718Z,100390.28
2022-11-02T07:08:07.047Z,100406.59
2022-11-02T07:10:36.770Z,100404.81
2022-11-02T07:13:06.828Z,100412.06
2022-11-02T07:15:34.213Z,100414.16
2022-11-02T07:18:02.200Z,100418.06
2022-11-02T07:20:30.541Z,100418.25
2022-11-02T07:23:02.306Z,100421.78
2022-11-02T07:25:33.963Z,100414.88
2022-11-02T07:28:04.899Z,100401.69
2022-11-02T07:30:34.859Z,100400.16
2022-11-02T07:33:02.354Z,100393.66
2022-11-02T07:35:29.789Z,100406.13
2022-11-02T07:38:02.650Z,100401.66
2022-11-02T07:40:31.607Z,100394.13
2022-11-02T07:42:59.268Z,100403.16
2022-11-02T07:46:06.269Z,100396.63
2022-11-02T07:48:33.554Z,100398.41
2022-11-02T07:51:00.564Z,100411.13
2022-11-02T07:53:27.893Z,100398.13
2022-11-02T07:55:57.279Z,100391.81
2022-11-02T07:58:24.484Z,100402.47
2022-11-02T08:00:55.852Z,100398.19
2022-11-02T08:03:26.677Z,100398.09
2022-11-02T08:05:54.976Z,100391.75
2022-11-02T08:08:23.556Z,100389.94
2022-11-02T08:10:52.590Z,100383.50
2022-11-02T08:13:23.359Z,100378.59
2022-11-02T08:15:53.942Z,100379.19
2022-11-02T08:18:41.342Z,100382.78
2022-11-02T08:21:10.572Z,100379.97
2022-11-02T08:23:38.060Z,100379.78
2022-11-02T08:26:05.236Z,100376.03
2022-11-02T08:28:40.239Z,100371.56
2022-11-02T08:31:16.496Z,100363.34
2022-11-02T08:33:44.895Z,100363.16
2022-11-02T08:36:12.446Z,100362.59
2022-11-02T08:38:40.120Z,100361.47
2022-11-02T08:41:07.299Z,100368.44
2022-11-02T08:43:34.769Z,100356.44
2022-11-02T08:46:14.831Z,100352.31
2022-11-02T08:48:43.381Z,100355.69
2022-11-02T08:51:10.604Z,100357.00
2022-11-02T08:53:38.231Z,100357.53
2022-11-02T08:56:07.716Z,100355.88
2022-11-02T08:58:35.082Z,100352.28
2022-11-02T09:01:02.218Z,100352.69
2022-11-02T09:03:29.497Z,100355.09
2022-11-02T09:06:02.158Z,100349.13
2022-11-02T09:08:30.546Z,100344.59
2022-11-02T09:11:00.406Z,100351.38
2022-11-02T09:13:28.121Z,100354.16
2022-11-02T09:16:00.833Z,100358.03
2022-11-02T09:18:28.906Z,100347.16
2022-11-02T09:20:56.472Z,100358.34
2022-11-02T09:23:25.019Z,100350.84
2022-11-02T09:25:52.282Z,100356.41
2022-11-02T09:28:19.637Z,100347.94
2022-11-02T09:30:46.728Z,100361.66
2022-11-02T09:33:14.187Z,100356.69
2022-11-02T09:35:44.407Z,100357.63
2022-11-02T09:38:12.660Z,100355.06
2022-11-02T09:40:43.567Z,100351.38
2022-11-02T09:43:30.960Z,100358.31
2022-11-02T09:46:09.695Z,100354.91
2022-11-02T09:48:45.464Z,100359.03
2022-11-02T09:51:16.486Z,100355.66
2022-11-02T09:54:05.684Z,100350.25
2022-11-02T09:56:34.728Z,100353.59
2022-11-02T09:59:15.894Z,100347.81
2022-11-02T10:01:56.251Z,100338.09
2022-11-02T10:04:50.973Z,100338.28
2022-11-02T10:07:49.096Z,100336.38
2022-11-02T10:10:29.535Z,100329.22
2022-11-02T10:13:15.409Z,100335.22
2022-11-02T10:16:03.344Z,100341.38
2022-11-02T10:18:31.355Z,100328.63
2022-11-02T10:21:02.281Z,100341.66
2022-11-02T10:23:34.661Z,100335.88
2022-11-02T10:26:06.915Z,100332.53
2022-11-02T10:28:37.473Z,100333.28
2022-11-02T10:31:22.298Z,100326.91
2022-11-02T10:33:52.839Z,100333.50
2022-11-02T10:36:23.126Z,100329.91
2022-11-02T10:39:35.202Z,100333.06
2022-11-02T10:42:24.080Z,100325.38
2022-11-02T10:45:02.825Z,100326.34
2022-11-02T10:47:44.049Z,100318.88
2022-11-02T10:50:20.557Z,100328.44
2022-11-02T10:52:48.218Z,100319.09
2022-11-02T10:55:39.683Z,100314.78
2022-11-02T10:58:13.990Z,100314.53
2022-11-02T11:00:42.962Z,100315.69
2022-11-02T11:03:18.301Z,100322.06
2022-11-02T11:05:51.789Z,100317.91
2022-11-02T11:08:31.118Z,100318.50
2022-11-02T11:11:14.746Z,100320.91
2022-11-02T11:16:44.820Z,100307.75
2022-11-02T11:19:40.615Z,100322.25
2022-11-02T11:22:28.620Z,100314.91
2022-11-02T11:25:25.859Z,100323.69
2022-11-02T11:27:58.842Z,100318.22
2022-11-02T11:30:59.040Z,100316.19
2022-11-02T11:33:24.214Z,100322.25
2022-11-02T11:35:54.838Z,100317.16
2022-11-02T11:38:24.509Z,100313.25
2022-11-02T11:40:58.278Z,100318.31
2022-11-02T11:43:28.423Z,100311.59
2022-11-02T11:46:05.727Z,100305.59
2022-11-02T11:48:39.735Z,100304.06
2022-11-02T11:51:42.376Z,100308.22
2022-11-02T11:54:23.973Z,100301.44
2022-11-02T11:56:54.593Z,100302.63
2022-11-02T11:59:41.751Z,100306.53
2022-11-02T12:02:27.788Z,100302.59
2022-11-02T12:05:18.024Z,100304.84
2022-11-02T12:08:15.806Z,100300.75
2022-11-02T12:10:58.060Z,100303.00
2022-11-02T12:13:50.428Z,100308.09
2022-11-02T12:16:39.685Z,100308.84
2022-11-02T12:19:22.707Z,100306.38
2022-11-02T12:22:07.199Z,100303.59
2022-11-02T12:24:43.603Z,100300.38
2022-11-02T12:27:24.813Z,100294.56
2022-11-02T12:29:58.738Z,100290.63
2022-11-02T12:32:43.751Z,100291.56
2022-11-02T12:35:32.852Z,100286.13
2022-11-02T12:38:18.086Z,100283.88
2022-11-02T12:40:54.765Z,100293.44
2022-11-02T12:43:35.119Z,100278.28
2022-11-02T12:46:04.566Z,100274.13
2022-11-02T12:49:09.819Z,100279.75
2022-11-02T12:51:44.591Z,100273.84
2022-11-02T12:54:20.351Z,100274.97
2022-11-02T12:56:50.733Z,100279.13
2022-11-02T12:59:26.520Z,100272.56
2022-11-02T13:02:28.074Z,100279.50
2022-11-02T13:05:02.138Z,100275.00
2022-11-02T13:07:44.645Z,100271.84
2022-11-02T13:10:34.826Z,100274.47
2022-11-02T13:13:04.842Z,100269.06
2022-11-02T13:15:35.328Z,100265.13
2022-11-02T13:18:24.475Z,100275.59
2022-11-02T13:20:58.491Z,100273.91
2022-11-02T13:23:40.857Z,100275.06
2022-11-02T13:26:37.904Z,100272.44
2022-11-02T13:29:12.551Z,100276.19
2022-11-02T13:31:47.407Z,100276.94
2022-11-02T13:34:19.971Z,100267.97
2022-11-02T13:36:49.235Z,100261.63
2022-11-02T13:39:26.872Z,100273.75
2022-11-02T13:42:12.466Z,100273.00
2022-11-02T13:45:14.155Z,100277.50
2022-11-02T13:48:00.887Z,100280.09
2022-11-02T13:50:28.547Z,100281.72
2022-11-02T13:53:08.848Z,100284.66
2022-11-02T13:56:05.829Z,100275.66
2022-11-02T13:58:36.137Z,100286.84
2022-11-02T14:01:06.712Z,100286.41
2022-11-02T14:03:45.525Z,100285.66
2022-11-02T14:06:15.553Z,100286.38
2022-11-02T14:08:53.756Z,100302.75
2022-11-02T14:11:20.983Z,100293.19
2022-11-02T14:13:54.210Z,100294.84
2022-11-02T14:16:50.529Z,100291.84
2022-11-02T14:19:19.128Z,100295.16
2022-11-02T14:21:59.556Z,100291.78
2022-11-02T14:24:32.779Z,100292.00
2022-11-02T14:27:04.807Z,100292.66
2022-11-02T14:29:47.147Z,100295.97
2022-11-02T14:32:19.993Z,100292.97
2022-11-02T14:35:04.368Z,100293.63
2022-11-02T14:37:45.719Z,100295.66
2022-11-02T14:40:32.064Z,100298.53
2022-11-02T14:43:36.641Z,100299.25
2022-11-02T14:46:48.938Z,100302.91
2022-11-02T14:49:23.255Z,100301.00
2022-11-02T14:52:13.618Z,100310.63
2022-11-02T14:55:08.499Z,100315.31
2022-11-02T14:57:40.364Z,100319.22
2022-11-02T15:00:20.042Z,100328.25
2022-11-02T15:02:48.431Z,100331.28
2022-11-02T15:05:29.568Z,100335.59
2022-11-02T15:08:09.954Z,100334.19
2022-11-02T15:10:46.905Z,100335.81
2022-11-02T15:13:19.988Z,100335.38
2022-11-02T15:15:50.531Z,100337.91
2022-11-02T15:18:29.971Z,100352.63
2022-11-02T15:21:17.845Z,100342.78
2022-11-02T15:24:09.823Z,100349.53
2022-11-02T15:26:53.086Z,100361.00
2022-11-02T15:29:43.671Z,100361.00
2022-11-02T15:32:23.099Z,100363.63
2022-11-02T15:34:53.904Z,100361.22
2022-11-02T15:37:27.209Z,100363.16
2022-11-02T15:39:57.227Z,100372.63
2022-11-02T15:42:41.159Z,100371.09
2022-11-02T15:45:49.361Z,100370.63
2022-11-02T15:48:31.888Z,100367.16
2022-11-02T15:51:17.783Z,100369.91
2022-11-02T15:53:56.248Z,100371.06
2022-11-02T15:56:34.279Z,100370.94
2022-11-02T15:59:01.559Z,100373.44
2022-11-02T16:01:30.003Z,100375.56
2022-11-02T16:04:02.208Z,100374.88
2022-11-02T16:06:37.208Z,100378.22
2022-11-02T16:09:30.355Z,100375.56
2022-11-02T16:12:12.469Z,100379.25
2022-11-02T16:14:40.947Z,100389.19
2022-11-02T16:17:20.006Z,100387.41
2022-11-02T16:19:49.390Z,100377.91
2022-11-02T16:22:27.173Z,100390.88
2022-11-02T16:24:55.253Z,100391.47
2022-11-02T16:27:23.472Z,100396.84
2022-11-02T16:29:52.362Z,100396.91
2022-11-02T16:32:20.206Z,100401.75
2022-11-02T16:34:49.096Z,100412.66
2022-11-02T16:37:18.859Z,100408.56
2022-11-02T16:39:47.807Z,100410.09
2022-11-02T16:42:24.073Z,100411.38
2022-11-02T16:44:57.575Z,100420.00
2022-11-02T16:47:34.366Z,100416.22
2022-11-02T16:50:04.279Z,100419.72
2022-11-02T16:52:37.019Z,100424.34
2022-11-02T16:55:43.751Z,100418.53
2022-11-02T16:58:23.656Z,100417.34
2022-11-02T17:00:59.724Z,100423.41
2022-11-02T17:03:30.177Z,100420.22
2022-11-02T17:06:04.054Z,100428.09
2022-11-02T17:08:37.286Z,100421.31
2022-11-02T17:11:08.227Z,100418.31
2022-11-02T17:13:38.827Z,100425.66
2022-11-02T17:16:12.042Z,100423.91
2022-11-02T17:18:39.887Z,100433.25
2022-11-02T17:21:14.573Z,100433.38
2022-11-02T17:23:47.547Z,100432.84
2022-11-02T17:26:26.649Z,100435.69
2022-11-02T17:28:56.959Z,100434.66
2022-11-02T17:31:31.825Z,100429.34
2022-11-02T17:34:10.362Z,100443.41
2022-11-02T17:36:43.931Z,100437.59
2022-11-02T17:39:15.172Z,100435.00
2022-11-02T17:42:05.903Z,100434.19
2022-11-02T17:44:37.770Z,100443.34
2022-11-02T17:47:14.442Z,100445.06
2022-11-02T17:49:45.698Z,100435.75
2022-11-02T17:52:18.946Z,100438.13
2022-11-02T17:54:46.699Z,100437.44
2022-11-02T17:57:15.496Z,100434.47
2022-11-02T17:59:44.123Z,100428.72
2022-11-02T18:02:16.384Z,100421.47
2022-11-02T18:04:45.685Z,100422.03
2022-11-02T18:07:13.997Z,100413.75
2022-11-02T18:09:47.251Z,100409.28
2022-11-02T18:12:18.089Z,100413.66
2022-11-02T18:14:48.155Z,100414.22
2022-11-02T18:17:17.405Z,100404.44
2022-11-02T18:19:47.233Z,100396.66
2022-11-02T18:22:16.196Z,100393.91
2022-11-02T18:24:45.041Z,100395.25
2022-11-02T18:27:13.506Z,100397.53
2022-11-02T18:29:41.889Z,100395.78
2022-11-02T18:32:11.308Z,100395.03
2022-11-02T18:34:39.879Z,100389.50
2022-11-02T18:37:09.770Z,100392.06
2022-11-02T18:39:38.936Z,100391.31
2022-11-02T18:42:08.165Z,100395.06
2022-11-02T18:44:36.420Z,100402.41
2022-11-02T18:47:04.981Z,100397.63
2022-11-02T18:49:34.706Z,100396.63
2022-11-02T18:52:03.229Z,100386.78
2022-11-02T18:54:31.894Z,100388.00
2022-11-02T18:57:00.280Z,100394.84
2022-11-02T18:59:30.807Z,100393.31
2022-11-02T19:02:05.767Z,100402.41
2022-11-02T19:04:37.010Z,100399.91
2022-11-02T19:07:24.279Z,100395.06
2022-11-02T19:09:56.478Z,100408.69
2022-11-02T19:12:30.149Z,100408.66
2022-11-02T19:14:59.273Z,100409.81
2022-11-02T19:17:28.466Z,100403.81
2022-11-02T19:19:57.556Z,100409.63
2022-11-02T19:22:27.782Z,100401.50
2022-11-02T19:24:55.690Z,100398.13
2022-11-02T19:27:26.296Z,100407.53
2022-11-02T19:29:54.370Z,100415.88
2022-11-02T19:32:24.826Z,100410.59
2022-11-02T19:34:53.739Z,100408.59
2022-11-02T19:37:23.203Z,100418.25
2022-11-02T19:39:51.443Z,100418.53
2022-11-02T19:42:19.986Z,100415.47
2022-11-02T19:44:50.404Z,100424.38
2022-11-02T19:47:19.411Z,100429.69
2022-11-02T19:49:50.901Z,100425.84
2022-11-02T19:52:24.327Z,100430.72
2022-11-02T19:54:57.310Z,100438.03
2022-11-02T19:57:29.342Z,100429.69
2022-11-02T20:00:01.577Z,100423.66
2022-11-02T20:02:39.505Z,100423.91
2022-11-02T20:05:08.680Z,100437.81
2022-11-02T20:07:37.444Z,100434.75
2022-11-02T20:10:08.683Z,100425.94
2022-11-02T20:12:37.759Z,100434.50
2022-11-02T20:15:08.469Z,100438.81
2022-11-02T20:17:52.045Z,100438.56
2022-11-02T20:20:28.790Z,100439.06
2022-11-02T20:23:01.347Z,100449.34
2022-11-02T20:25:31.689Z,100451.88
2022-11-02T20:28:00.207Z,100452.31
2022-11-02T20:30:30.703Z,100452.13
2022-11-02T20:33:01.298Z,100439.34
2022-11-02T20:35:29.520Z,100453.53
2022-11-02T20:37:58.574Z,100449.56
2022-11-02T20:40:35.310Z,100452.34
2022-11-02T20:43:07.760Z,100452.66
2022-11-02T20:45:37.356Z,100450.41
2022-11-02T20:48:05.964Z,100450.19
2022-11-02T20:50:34.452Z,100456.00
2022-11-02T20:53:04.207Z,100454.50
2022-11-02T20:55:35.426Z,100444.69
2022-11-02T20:58:04.004Z,100448.97
2022-11-02T21:00:32.323Z,100443.16
2022-11-02T21:03:02.313Z,100447.97
2022-11-02T21:05:31.299Z,100449.75
2022-11-02T21:07:59.377Z,100447.97
2022-11-02T21:10:27.342Z,100447.75
2022-11-02T21:13:13.953Z,100439.19
2022-11-02T21:15:41.312Z,100448.50
2022-11-02T21:18:08.985Z,100439.94
2022-11-02T21:20:36.550Z,100446.25
2022-11-02T21:23:05.740Z,100442.97
2022-11-02T21:25:33.934Z,100438.69
2022-11-02T21:28:01.595Z,100433.13
2022-11-02T21:30:31.158Z,100437.41
2022-11-02T21:32:59.278Z,100441.94
2022-11-02T21:35:26.679Z,100438.69
2022-11-02T21:38:02.478Z,100437.16
2022-11-02T21:40:32.415Z,100438.44
2022-11-02T21:42:59.780Z,100435.38
2022-11-02T21:45:26.826Z,100433.88
2022-11-02T21:47:54.187Z,100441.16
2022-11-02T21:50:21.387Z,100440.38
2022-11-02T21:52:48.864Z,100435.09
2022-11-02T21:55:15.891Z,100441.41
2022-11-02T21:57:45.473Z,100431.09
2022-11-02T22:00:12.967Z,100438.63
2022-11-02T22:02:42.699Z,100431.34
2022-11-02T22:05:29.697Z,100429.81
2022-11-02T22:08:16.000Z,100419.72
2022-11-02T22:10:45.395Z,100424.25
2022-11-02T22:13:31.358Z,100426.53
2022-11-02T22:16:06.213Z,100430.56
2022-11-02T22:18:33.479Z,100419.72
2022-11-02T22:21:00.494Z,100427.28
2022-11-02T22:23:30.409Z,100419.44
2022-11-02T22:25:59.311Z,100424.22
2022-11-02T22:28:35.360Z,100429.78
2022-11-02T22:31:06.613Z,100430.03
2022-11-02T22:33:34.894Z,100433.50
2022-11-02T22:36:09.522Z,100428.72
2022-11-02T22:38:51.134Z,100429.22
2022-11-02T22:41:22.194Z,100421.16
2022-11-02T22:43:52.646Z,100429.72
2022-11-02T22:46:20.563Z,100430.44
2022-11-02T22:48:52.656Z,100437.22
2022-11-02T22:51:22.202Z,100439.16
2022-11-02T22:53:50.342Z,100438.81
2022-11-02T22:56:21.755Z,100446.81
2022-11-02T22:58:52.450Z,100443.69
2022-11-02T23:01:22.695Z,100435.09
2022-11-02T23:03:51.260Z,100439.25
2022-11-02T23:06:25.890Z,100428.66
2022-11-02T23:08:55.181Z,100430.59
2022-11-02T23:11:25.160Z,100431.81
2022-11-02T23:14:01.463Z,100435.25
2022-11-02T23:16:31.574Z,100432.72
2022-11-02T23:19:31.046Z,100433.44
2022-11-02T23:22:24.910Z,100439.63
2022-11-02T23:25:11.418Z,100442.38
2022-11-02T23:28:02.508Z,100428.06
2022-11-02T23:30:54.057Z,100438.28
2022-11-02T23:33:23.019Z,100439.06
2022-11-02T23:36:09.248Z,100429.41
2022-11-02T23:38:54.692Z,100434.13
2022-11-02T23:41:22.075Z,100433.88
2022-11-02T23:43:49.024Z,100432.34
2022-11-02T23:46:17.619Z,100434.03
2022-11-02T23:48:47.189Z,100440.50
2022-11-02T23:51:35.634Z,100452.53
2022-11-02T23:54:21.210Z,100448.16
2022-11-02T23:56:50.131Z,100457.41
2022-11-02T23:59:18.183Z,100463.19
